sensor_id;sensor_type;location;lat;lon;timestamp;temperature;humidity
52965;DHT22;42923;53.220;6.528;2023-02-22T00:01:13;8.40;99.90
52965;DHT22;42923;53.220;6.528;2023-02-22T00:03:57;8.40;99.90
52965;DHT22;42923;53.220;6.528;2023-02-22T00:06:23;8.40;99.90
52965;DHT22;42923;53.220;6.528;2023-02-22T00:08:52;8.40;99.90
52965;DHT22;42923;53.220;6.528;2023-02-22T00:11:18;8.40;99.90
52965;DHT22;42923;53.220;6.528;2023-02-22T00:13:45;8.40;99.90
52965;DHT22;42923;53.220;6.528;2023-02-22T00:16:16;8.40;99.90
52965;DHT22;42923;53.220;6.528;2023-02-22T00:18:42;8.40;99.90
52965;DHT22;42923;53.220;6.528;2023-02-22T00:21:09;8.40;99.90
52965;DHT22;42923;53.220;6.528;2023-02-22T00:23:36;8.40;99.90
52965;DHT22;42923;53.220;6.528;2023-02-22T00:26:05;8.40;99.90
52965;DHT22;42923;53.220;6.528;2023-02-22T00:28:35;8.40;99.90
52965;DHT22;42923;53.220;6.528;2023-02-22T00:31:03;8.40;99.90
52965;DHT22;42923;53.220;6.528;2023-02-22T00:33:32;8.30;99.90
52965;DHT22;42923;53.220;6.528;2023-02-22T00:35:58;8.40;99.90
52965;DHT22;42923;53.220;6.528;2023-02-22T00:38:26;8.70;99.90
52965;DHT22;42923;53.220;6.528;2023-02-22T00:40:51;8.30;99.90
52965;DHT22;42923;53.220;6.528;2023-02-22T00:43:17;8.40;99.90
52965;DHT22;42923;53.220;6.528;2023-02-22T00:45:43;8.30;99.90
52965;DHT22;42923;53.220;6.528;2023-02-22T00:48:09;8.30;99.90
52965;DHT22;42923;53.220;6.528;2023-02-22T00:50:36;8.40;99.90
52965;DHT22;42923;53.220;6.528;2023-02-22T00:53:03;8.30;99.90
52965;DHT22;42923;53.220;6.528;2023-02-22T00:55:33;8.20;99.90
52965;DHT22;42923;53.220;6.528;2023-02-22T00:58:00;8.40;99.90
52965;DHT22;42923;53.220;6.528;2023-02-22T01:00:34;8.30;99.90
52965;DHT22;42923;53.220;6.528;2023-02-22T01:03:01;8.30;99.90
52965;DHT22;42923;53.220;6.528;2023-02-22T01:05:28;8.30;99.90
52965;DHT22;42923;53.220;6.528;2023-02-22T01:07:56;8.30;99.90
52965;DHT22;42923;53.220;6.528;2023-02-22T01:10:24;8.30;99.90
52965;DHT22;42923;53.220;6.528;2023-02-22T01:12:51;8.30;99.90
52965;DHT22;42923;53.220;6.528;2023-02-22T01:15:22;8.30;99.90
52965;DHT22;42923;53.220;6.528;2023-02-22T01:17:49;8.30;99.90
52965;DHT22;42923;53.220;6.528;2023-02-22T01:20:16;8.30;99.90
52965;DHT22;42923;53.220;6.528;2023-02-22T01:22:44;8.30;99.90
52965;DHT22;42923;53.220;6.528;2023-02-22T01:25:14;8.30;99.90
52965;DHT22;42923;53.220;6.528;2023-02-22T01:27:40;8.30;99.90
52965;DHT22;42923;53.220;6.528;2023-02-22T01:30:07;8.30;99.90
52965;DHT22;42923;53.220;6.528;2023-02-22T01:32:38;8.30;99.90
52965;DHT22;42923;53.220;6.528;2023-02-22T01:35:07;8.30;99.90
52965;DHT22;42923;53.220;6.528;2023-02-22T01:37:34;8.30;99.90
52965;DHT22;42923;53.220;6.528;2023-02-22T01:40:00;8.30;99.90
52965;DHT22;42923;53.220;6.528;2023-02-22T01:42:26;8.30;99.90
52965;DHT22;42923;53.220;6.528;2023-02-22T01:48:07;8.30;99.90
52965;DHT22;42923;53.220;6.528;2023-02-22T01:50:40;8.30;99.90
52965;DHT22;42923;53.220;6.528;2023-02-22T01:53:08;8.30;99.90
52965;DHT22;42923;53.220;6.528;2023-02-22T01:55:37;8.30;99.90
52965;DHT22;42923;53.220;6.528;2023-02-22T01:58:04;8.30;99.90
52965;DHT22;42923;53.220;6.528;2023-02-22T02:00:30;8.30;99.90
52965;DHT22;42923;53.220;6.528;2023-02-22T02:03:09;8.30;99.90
52965;DHT22;42923;53.220;6.528;2023-02-22T02:05:36;8.30;99.90
52965;DHT22;42923;53.220;6.528;2023-02-22T02:08:32;8.30;99.90
52965;DHT22;42923;53.220;6.528;2023-02-22T02:11:03;8.30;99.90
52965;DHT22;42923;53.220;6.528;2023-02-22T02:13:29;8.30;99.90
52965;DHT22;42923;53.220;6.528;2023-02-22T02:15:55;8.30;99.90
52965;DHT22;42923;53.220;6.528;2023-02-22T02:18:22;8.30;99.90
52965;DHT22;42923;53.220;6.528;2023-02-22T02:31:57;8.30;99.90
52965;DHT22;42923;53.220;6.528;2023-02-22T02:34:46;8.30;99.90
52965;DHT22;42923;53.220;6.528;2023-02-22T02:39:56;8.20;99.90
52965;DHT22;42923;53.220;6.528;2023-02-22T02:42:29;8.20;99.90
52965;DHT22;42923;53.220;6.528;2023-02-22T02:45:04;8.20;99.90
52965;DHT22;42923;53.220;6.528;2023-02-22T02:47:37;8.20;99.90
52965;DHT22;42923;53.220;6.528;2023-02-22T02:50:19;8.20;99.90
52965;DHT22;42923;53.220;6.528;2023-02-22T02:52:47;8.20;99.90
52965;DHT22;42923;53.220;6.528;2023-02-22T02:55:13;8.20;99.90
52965;DHT22;42923;53.220;6.528;2023-02-22T02:57:41;8.20;99.90
52965;DHT22;42923;53.220;6.528;2023-02-22T03:00:08;8.20;99.90
52965;DHT22;42923;53.220;6.528;2023-02-22T03:03:21;8.20;99.90
52965;DHT22;42923;53.220;6.528;2023-02-22T03:06:14;8.20;99.90
52965;DHT22;42923;53.220;6.528;2023-02-22T03:11:20;8.20;99.90
52965;DHT22;42923;53.220;6.528;2023-02-22T03:14:33;8.20;99.90
52965;DHT22;42923;53.220;6.528;2023-02-22T03:16:44;8.20;99.90
52965;DHT22;42923;53.220;6.528;2023-02-22T03:22:20;8.20;99.90
52965;DHT22;42923;53.220;6.528;2023-02-22T03:25:27;8.10;99.90
52965;DHT22;42923;53.220;6.528;2023-02-22T03:28:00;8.20;99.90
52965;DHT22;42923;53.220;6.528;2023-02-22T03:30:36;8.10;99.90
52965;DHT22;42923;53.220;6.528;2023-02-22T03:33:13;8.10;99.90
52965;DHT22;42923;53.220;6.528;2023-02-22T03:35:47;8.20;99.90
52965;DHT22;42923;53.220;6.528;2023-02-22T03:38:16;8.10;99.90
52965;DHT22;42923;53.220;6.528;2023-02-22T03:40:49;8.10;99.90
52965;DHT22;42923;53.220;6.528;2023-02-22T03:43:42;8.10;99.90
52965;DHT22;42923;53.220;6.528;2023-02-22T03:46:13;8.10;99.90
52965;DHT22;42923;53.220;6.528;2023-02-22T03:48:56;8.10;99.90
52965;DHT22;42923;53.220;6.528;2023-02-22T03:51:28;8.10;99.90
52965;DHT22;42923;53.220;6.528;2023-02-22T03:53:58;8.20;99.90
52965;DHT22;42923;53.220;6.528;2023-02-22T03:56:32;8.10;99.90
52965;DHT22;42923;53.220;6.528;2023-02-22T03:59:03;8.20;99.90
52965;DHT22;42923;53.220;6.528;2023-02-22T04:01:31;8.10;99.90
52965;DHT22;42923;53.220;6.528;2023-02-22T04:03:57;8.10;99.90
52965;DHT22;42923;53.220;6.528;2023-02-22T04:06:23;8.20;99.90
52965;DHT22;42923;53.220;6.528;2023-02-22T04:08:49;8.10;99.90
52965;DHT22;42923;53.220;6.528;2023-02-22T04:11:15;8.10;99.90
52965;DHT22;42923;53.220;6.528;2023-02-22T04:13:41;8.10;99.90
52965;DHT22;42923;53.220;6.528;2023-02-22T04:16:06;8.10;99.90
52965;DHT22;42923;53.220;6.528;2023-02-22T04:18:33;8.10;99.90
52965;DHT22;42923;53.220;6.528;2023-02-22T04:20:59;7.90;99.90
52965;DHT22;42923;53.220;6.528;2023-02-22T04:23:39;8.10;99.90
52965;DHT22;42923;53.220;6.528;2023-02-22T04:26:04;8.10;99.90
52965;DHT22;42923;53.220;6.528;2023-02-22T04:28:31;8.10;99.90
52965;DHT22;42923;53.220;6.528;2023-02-22T04:31:06;8.10;99.90
52965;DHT22;42923;53.220;6.528;2023-02-22T04:33:32;8.10;99.90
52965;DHT22;42923;53.220;6.528;2023-02-22T04:35:58;8.10;99.90
52965;DHT22;42923;53.220;6.528;2023-02-22T04:38:24;8.10;99.90
52965;DHT22;42923;53.220;6.528;2023-02-22T04:40:52;8.10;99.90
52965;DHT22;42923;53.220;6.528;2023-02-22T04:43:19;8.10;99.90
52965;DHT22;42923;53.220;6.528;2023-02-22T04:45:46;8.10;99.90
52965;DHT22;42923;53.220;6.528;2023-02-22T04:48:12;8.10;99.90
52965;DHT22;42923;53.220;6.528;2023-02-22T04:50:38;8.10;99.90
52965;DHT22;42923;53.220;6.528;2023-02-22T04:53:05;8.10;99.90
52965;DHT22;42923;53.220;6.528;2023-02-22T04:55:30;8.10;99.90
52965;DHT22;42923;53.220;6.528;2023-02-22T04:57:56;8.10;99.90
52965;DHT22;42923;53.220;6.528;2023-02-22T05:00:23;8.10;99.90
52965;DHT22;42923;53.220;6.528;2023-02-22T05:02:50;8.10;99.90
52965;DHT22;42923;53.220;6.528;2023-02-22T05:05:18;8.10;99.90
52965;DHT22;42923;53.220;6.528;2023-02-22T05:07:46;8.10;99.90
52965;DHT22;42923;53.220;6.528;2023-02-22T05:10:13;8.10;99.90
52965;DHT22;42923;53.220;6.528;2023-02-22T05:12:39;8.10;99.90
52965;DHT22;42923;53.220;6.528;2023-02-22T05:15:06;8.10;99.90
52965;DHT22;42923;53.220;6.528;2023-02-22T05:17:32;8.10;99.90
52965;DHT22;42923;53.220;6.528;2023-02-22T05:19:58;8.10;99.90
52965;DHT22;42923;53.220;6.528;2023-02-22T05:22:24;8.00;99.90
52965;DHT22;42923;53.220;6.528;2023-02-22T05:24:50;8.10;99.90
52965;DHT22;42923;53.220;6.528;2023-02-22T05:27:17;8.00;99.90
52965;DHT22;42923;53.220;6.528;2023-02-22T05:29:43;8.10;99.90
52965;DHT22;42923;53.220;6.528;2023-02-22T05:32:09;8.00;99.90
52965;DHT22;42923;53.220;6.528;2023-02-22T05:34:37;8.10;99.90
52965;DHT22;42923;53.220;6.528;2023-02-22T05:37:03;8.00;99.90
52965;DHT22;42923;53.220;6.528;2023-02-22T05:39:29;8.10;99.90
52965;DHT22;42923;53.220;6.528;2023-02-22T05:41:55;8.10;99.90
52965;DHT22;42923;53.220;6.528;2023-02-22T05:44:21;8.00;99.90
52965;DHT22;42923;53.220;6.528;2023-02-22T05:46:47;8.00;99.90
52965;DHT22;42923;53.220;6.528;2023-02-22T05:49:12;8.00;99.90
52965;DHT22;42923;53.220;6.528;2023-02-22T05:51:38;8.00;99.90
52965;DHT22;42923;53.220;6.528;2023-02-22T05:54:04;8.00;99.90
52965;DHT22;42923;53.220;6.528;2023-02-22T05:56:30;8.00;99.90
52965;DHT22;42923;53.220;6.528;2023-02-22T05:58:56;8.00;99.90
52965;DHT22;42923;53.220;6.528;2023-02-22T06:01:23;7.90;99.90
52965;DHT22;42923;53.220;6.528;2023-02-22T06:03:50;8.00;99.90
52965;DHT22;42923;53.220;6.528;2023-02-22T06:06:16;8.00;99.90
52965;DHT22;42923;53.220;6.528;2023-02-22T06:08:42;8.00;99.90
52965;DHT22;42923;53.220;6.528;2023-02-22T06:11:08;8.00;99.90
52965;DHT22;42923;53.220;6.528;2023-02-22T06:13:35;7.90;99.90
52965;DHT22;42923;53.220;6.528;2023-02-22T06:16:01;7.90;99.90
52965;DHT22;42923;53.220;6.528;2023-02-22T06:18:27;7.90;99.90
52965;DHT22;42923;53.220;6.528;2023-02-22T06:20:56;7.90;99.90
52965;DHT22;42923;53.220;6.528;2023-02-22T06:23:22;7.90;99.90
52965;DHT22;42923;53.220;6.528;2023-02-22T06:25:48;7.90;99.90
52965;DHT22;42923;53.220;6.528;2023-02-22T06:28:14;7.90;99.90
52965;DHT22;42923;53.220;6.528;2023-02-22T06:30:40;7.90;99.90
52965;DHT22;42923;53.220;6.528;2023-02-22T06:33:08;7.80;99.90
52965;DHT22;42923;53.220;6.528;2023-02-22T06:35:34;7.80;99.90
52965;DHT22;42923;53.220;6.528;2023-02-22T06:38:00;7.80;99.90
52965;DHT22;42923;53.220;6.528;2023-02-22T06:40:25;7.80;99.90
52965;DHT22;42923;53.220;6.528;2023-02-22T06:42:55;7.80;99.90
52965;DHT22;42923;53.220;6.528;2023-02-22T06:45:21;7.80;99.90
52965;DHT22;42923;53.220;6.528;2023-02-22T06:47:47;7.80;99.90
52965;DHT22;42923;53.220;6.528;2023-02-22T06:50:26;7.80;99.90
52965;DHT22;42923;53.220;6.528;2023-02-22T06:52:53;7.80;99.90
52965;DHT22;42923;53.220;6.528;2023-02-22T06:55:25;7.80;99.90
52965;DHT22;42923;53.220;6.528;2023-02-22T06:57:52;7.80;99.90
52965;DHT22;42923;53.220;6.528;2023-02-22T07:00:20;7.70;99.90
52965;DHT22;42923;53.220;6.528;2023-02-22T07:02:46;7.80;99.90
52965;DHT22;42923;53.220;6.528;2023-02-22T07:05:16;7.80;99.90
52965;DHT22;42923;53.220;6.528;2023-02-22T07:07:43;7.70;99.90
52965;DHT22;42923;53.220;6.528;2023-02-22T07:10:27;7.80;99.90
52965;DHT22;42923;53.220;6.528;2023-02-22T07:12:56;7.80;99.90
52965;DHT22;42923;53.220;6.528;2023-02-22T07:15:23;7.80;99.90
52965;DHT22;42923;53.220;6.528;2023-02-22T07:17:52;7.80;99.90
52965;DHT22;42923;53.220;6.528;2023-02-22T07:20:19;7.80;99.90
52965;DHT22;42923;53.220;6.528;2023-02-22T07:22:46;7.80;99.90
52965;DHT22;42923;53.220;6.528;2023-02-22T07:25:12;7.80;99.90
52965;DHT22;42923;53.220;6.528;2023-02-22T07:27:39;7.80;99.90
52965;DHT22;42923;53.220;6.528;2023-02-22T07:30:07;7.80;99.90
52965;DHT22;42923;53.220;6.528;2023-02-22T07:32:42;7.80;99.90
52965;DHT22;42923;53.220;6.528;2023-02-22T07:35:23;7.80;99.90
52965;DHT22;42923;53.220;6.528;2023-02-22T07:37:49;7.80;99.90
52965;DHT22;42923;53.220;6.528;2023-02-22T07:40:16;7.80;99.90
52965;DHT22;42923;53.220;6.528;2023-02-22T07:43:03;7.80;99.90
52965;DHT22;42923;53.220;6.528;2023-02-22T07:45:30;7.80;99.90
52965;DHT22;42923;53.220;6.528;2023-02-22T07:47:56;7.70;99.90
52965;DHT22;42923;53.220;6.528;2023-02-22T07:50:24;7.70;99.90
52965;DHT22;42923;53.220;6.528;2023-02-22T07:52:54;7.80;99.90
52965;DHT22;42923;53.220;6.528;2023-02-22T07:55:26;7.70;99.90
52965;DHT22;42923;53.220;6.528;2023-02-22T07:57:55;7.70;99.90
52965;DHT22;42923;53.220;6.528;2023-02-22T08:00:42;7.80;99.90
52965;DHT22;42923;53.220;6.528;2023-02-22T08:03:14;7.80;99.90
52965;DHT22;42923;53.220;6.528;2023-02-22T08:05:43;7.80;99.90
52965;DHT22;42923;53.220;6.528;2023-02-22T08:08:10;8.00;99.90
52965;DHT22;42923;53.220;6.528;2023-02-22T08:10:36;7.80;99.90
52965;DHT22;42923;53.220;6.528;2023-02-22T08:13:03;7.80;99.90
52965;DHT22;42923;53.220;6.528;2023-02-22T08:15:38;7.80;99.90
52965;DHT22;42923;53.220;6.528;2023-02-22T08:18:09;7.90;99.90
52965;DHT22;42923;53.220;6.528;2023-02-22T08:20:37;7.90;99.90
52965;DHT22;42923;53.220;6.528;2023-02-22T08:23:04;7.90;99.90
52965;DHT22;42923;53.220;6.528;2023-02-22T08:25:30;8.20;99.90
52965;DHT22;42923;53.220;6.528;2023-02-22T08:28:01;7.90;99.90
52965;DHT22;42923;53.220;6.528;2023-02-22T08:30:28;7.90;99.90
52965;DHT22;42923;53.220;6.528;2023-02-22T08:32:55;7.90;99.90
52965;DHT22;42923;53.220;6.528;2023-02-22T08:35:28;7.90;99.90
52965;DHT22;42923;53.220;6.528;2023-02-22T14:16:32;9.70;99.90
52965;DHT22;42923;53.220;6.528;2023-02-22T14:19:19;9.80;99.90
52965;DHT22;42923;53.220;6.528;2023-02-22T14:22:00;9.70;99.90
52965;DHT22;42923;53.220;6.528;2023-02-22T14:24:49;9.70;99.90
52965;DHT22;42923;53.220;6.528;2023-02-22T14:27:16;9.70;99.90
52965;DHT22;42923;53.220;6.528;2023-02-22T14:29:56;9.70;99.90
52965;DHT22;42923;53.220;6.528;2023-02-22T14:32:30;9.80;99.90
52965;DHT22;42923;53.220;6.528;2023-02-22T14:48:35;9.70;99.90
52965;DHT22;42923;53.220;6.528;2023-02-22T14:51:25;10.10;99.90
52965;DHT22;42923;53.220;6.528;2023-02-22T14:54:02;9.80;99.90
52965;DHT22;42923;53.220;6.528;2023-02-22T14:56:38;9.90;99.90
52965;DHT22;42923;53.220;6.528;2023-02-22T14:59:20;9.80;99.90
52965;DHT22;42923;53.220;6.528;2023-02-22T15:01:48;9.80;99.90
52965;DHT22;42923;53.220;6.528;2023-02-22T15:06:42;9.80;99.90
52965;DHT22;42923;53.220;6.528;2023-02-22T15:09:14;9.80;99.90
52965;DHT22;42923;53.220;6.528;2023-02-22T15:14:34;9.80;99.90
52965;DHT22;42923;53.220;6.528;2023-02-22T15:17:18;9.80;99.90
52965;DHT22;42923;53.220;6.528;2023-02-22T15:19:45;9.80;99.90
52965;DHT22;42923;53.220;6.528;2023-02-22T15:22:30;9.80;99.90
52965;DHT22;42923;53.220;6.528;2023-02-22T15:24:59;9.80;99.90
52965;DHT22;42923;53.220;6.528;2023-02-22T15:27:26;9.70;99.90
52965;DHT22;42923;53.220;6.528;2023-02-22T15:29:59;9.70;99.90
52965;DHT22;42923;53.220;6.528;2023-02-22T15:35:26;9.60;99.90
52965;DHT22;42923;53.220;6.528;2023-02-22T15:40:36;9.60;99.90
52965;DHT22;42923;53.220;6.528;2023-02-22T15:43:06;9.50;99.90
52965;DHT22;42923;53.220;6.528;2023-02-22T15:45:35;9.50;99.90
52965;DHT22;42923;53.220;6.528;2023-02-22T15:48:09;9.60;99.90
52965;DHT22;42923;53.220;6.528;2023-02-22T15:50:35;9.50;99.90
52965;DHT22;42923;53.220;6.528;2023-02-22T15:53:26;9.40;99.90
52965;DHT22;42923;53.220;6.528;2023-02-22T15:55:57;9.40;99.90
52965;DHT22;42923;53.220;6.528;2023-02-22T15:58:26;9.40;99.90
52965;DHT22;42923;53.220;6.528;2023-02-22T16:01:16;9.40;99.90
52965;DHT22;42923;53.220;6.528;2023-02-22T16:03:52;9.40;99.90
52965;DHT22;42923;53.220;6.528;2023-02-22T16:06:37;9.30;99.90
52965;DHT22;42923;53.220;6.528;2023-02-22T16:09:14;9.30;99.90
52965;DHT22;42923;53.220;6.528;2023-02-22T16:11:45;9.30;99.90
52965;DHT22;42923;53.220;6.528;2023-02-22T16:14:30;9.20;99.90
52965;DHT22;42923;53.220;6.528;2023-02-22T16:19:50;9.20;99.90
52965;DHT22;42923;53.220;6.528;2023-02-22T16:24:53;9.20;99.90
52965;DHT22;42923;53.220;6.528;2023-02-22T16:27:22;9.10;99.90
52965;DHT22;42923;53.220;6.528;2023-02-22T16:32:32;9.10;99.90
52965;DHT22;42923;53.220;6.528;2023-02-22T16:34:58;9.10;99.90
52965;DHT22;42923;53.220;6.528;2023-02-22T16:37:23;9.10;99.90
52965;DHT22;42923;53.220;6.528;2023-02-22T16:39:49;9.00;99.90
52965;DHT22;42923;53.220;6.528;2023-02-22T16:42:18;9.10;99.90
52965;DHT22;42923;53.220;6.528;2023-02-22T16:44:50;9.00;99.90
52965;DHT22;42923;53.220;6.528;2023-02-22T16:47:16;9.10;99.90
52965;DHT22;42923;53.220;6.528;2023-02-22T16:49:42;8.90;99.90
52965;DHT22;42923;53.220;6.528;2023-02-22T16:52:08;8.90;99.90
52965;DHT22;42923;53.220;6.528;2023-02-22T16:54:38;8.90;99.90
52965;DHT22;42923;53.220;6.528;2023-02-22T16:57:06;8.80;99.90
52965;DHT22;42923;53.220;6.528;2023-02-22T16:59:37;8.80;99.90
52965;DHT22;42923;53.220;6.528;2023-02-22T17:02:04;8.80;99.90
52965;DHT22;42923;53.220;6.528;2023-02-22T17:04:32;8.70;99.90
52965;DHT22;42923;53.220;6.528;2023-02-22T17:06:58;8.60;99.90
52965;DHT22;42923;53.220;6.528;2023-02-22T17:09:24;8.60;99.90
52965;DHT22;42923;53.220;6.528;2023-02-22T17:11:52;8.60;99.90
52965;DHT22;42923;53.220;6.528;2023-02-22T17:14:21;8.50;99.90
52965;DHT22;42923;53.220;6.528;2023-02-22T17:16:50;8.60;99.90
52965;DHT22;42923;53.220;6.528;2023-02-22T17:19:22;8.40;99.90
52965;DHT22;42923;53.220;6.528;2023-02-22T17:21:49;8.40;99.90
52965;DHT22;42923;53.220;6.528;2023-02-22T17:24:17;8.40;99.90
52965;DHT22;42923;53.220;6.528;2023-02-22T17:26:44;8.50;99.90
52965;DHT22;42923;53.220;6.528;2023-02-22T17:29:10;8.40;99.90
52965;DHT22;42923;53.220;6.528;2023-02-22T17:31:38;8.30;99.90
52965;DHT22;42923;53.220;6.528;2023-02-22T17:34:04;8.30;99.90
52965;DHT22;42923;53.220;6.528;2023-02-22T17:36:33;8.30;99.90
52965;DHT22;42923;53.220;6.528;2023-02-22T17:39:02;8.30;99.90
52965;DHT22;42923;53.220;6.528;2023-02-22T17:41:28;8.30;99.90
52965;DHT22;42923;53.220;6.528;2023-02-22T17:43:54;8.30;99.90
52965;DHT22;42923;53.220;6.528;2023-02-22T17:46:23;8.30;99.90
52965;DHT22;42923;53.220;6.528;2023-02-22T17:48:50;8.30;99.90
52965;DHT22;42923;53.220;6.528;2023-02-22T17:51:20;8.30;99.90
52965;DHT22;42923;53.220;6.528;2023-02-22T17:53:46;8.30;99.90
52965;DHT22;42923;53.220;6.528;2023-02-22T17:56:15;8.60;99.90
52965;DHT22;42923;53.220;6.528;2023-02-22T17:58:47;8.20;99.90
52965;DHT22;42923;53.220;6.528;2023-02-22T18:01:25;8.20;99.90
52965;DHT22;42923;53.220;6.528;2023-02-22T18:03:53;8.20;99.90
52965;DHT22;42923;53.220;6.528;2023-02-22T18:06:20;8.10;99.90
52965;DHT22;42923;53.220;6.528;2023-02-22T18:08:47;8.20;99.90
52965;DHT22;42923;53.220;6.528;2023-02-22T18:11:14;8.10;99.90
52965;DHT22;42923;53.220;6.528;2023-02-22T18:13:40;8.10;99.90
52965;DHT22;42923;53.220;6.528;2023-02-22T18:16:07;8.10;99.90
52965;DHT22;42923;53.220;6.528;2023-02-22T18:18:34;8.10;99.90
52965;DHT22;42923;53.220;6.528;2023-02-22T18:21:00;8.10;99.90
52965;DHT22;42923;53.220;6.528;2023-02-22T18:23:30;8.00;99.90
52965;DHT22;42923;53.220;6.528;2023-02-22T18:25:57;8.00;99.90
52965;DHT22;42923;53.220;6.528;2023-02-22T18:28:23;8.00;99.90
52965;DHT22;42923;53.220;6.528;2023-02-22T18:30:49;8.00;99.90
52965;DHT22;42923;53.220;6.528;2023-02-22T18:33:16;7.90;99.90
52965;DHT22;42923;53.220;6.528;2023-02-22T18:35:43;7.90;99.90
52965;DHT22;42923;53.220;6.528;2023-02-22T18:38:12;7.90;99.90
52965;DHT22;42923;53.220;6.528;2023-02-22T18:40:42;7.90;99.90
52965;DHT22;42923;53.220;6.528;2023-02-22T18:43:11;7.90;99.90
52965;DHT22;42923;53.220;6.528;2023-02-22T18:45:37;7.90;99.90
52965;DHT22;42923;53.220;6.528;2023-02-22T18:48:03;7.80;99.90
52965;DHT22;42923;53.220;6.528;2023-02-22T18:50:28;7.80;99.90
52965;DHT22;42923;53.220;6.528;2023-02-22T18:52:54;7.80;99.90
52965;DHT22;42923;53.220;6.528;2023-02-22T18:55:21;7.80;99.90
52965;DHT22;42923;53.220;6.528;2023-02-22T18:57:48;7.80;99.90
52965;DHT22;42923;53.220;6.528;2023-02-22T19:00:19;7.90;99.90
52965;DHT22;42923;53.220;6.528;2023-02-22T19:02:49;7.90;99.90
52965;DHT22;42923;53.220;6.528;2023-02-22T19:05:15;7.90;99.90
52965;DHT22;42923;53.220;6.528;2023-02-22T19:07:42;7.90;99.90
52965;DHT22;42923;53.220;6.528;2023-02-22T19:10:08;7.90;99.90
52965;DHT22;42923;53.220;6.528;2023-02-22T19:12:34;7.90;99.90
52965;DHT22;42923;53.220;6.528;2023-02-22T19:15:00;7.90;99.90
52965;DHT22;42923;53.220;6.528;2023-02-22T19:17:27;7.90;99.90
52965;DHT22;42923;53.220;6.528;2023-02-22T19:19:53;7.90;99.90
52965;DHT22;42923;53.220;6.528;2023-02-22T19:22:20;7.90;99.90
52965;DHT22;42923;53.220;6.528;2023-02-22T19:24:46;7.90;99.90
52965;DHT22;42923;53.220;6.528;2023-02-22T19:27:12;7.90;99.90
52965;DHT22;42923;53.220;6.528;2023-02-22T19:29:39;7.90;99.90
52965;DHT22;42923;53.220;6.528;2023-02-22T19:32:08;8.00;99.90
52965;DHT22;42923;53.220;6.528;2023-02-22T19:34:36;8.00;99.90
52965;DHT22;42923;53.220;6.528;2023-02-22T19:37:04;8.00;99.90
52965;DHT22;42923;53.220;6.528;2023-02-22T19:39:31;8.00;99.90
52965;DHT22;42923;53.220;6.528;2023-02-22T19:41:58;7.90;99.90
52965;DHT22;42923;53.220;6.528;2023-02-22T19:44:25;8.00;99.90
52965;DHT22;42923;53.220;6.528;2023-02-22T19:46:51;8.00;99.90
52965;DHT22;42923;53.220;6.528;2023-02-22T19:49:20;8.00;99.90
52965;DHT22;42923;53.220;6.528;2023-02-22T19:51:46;8.00;99.90
52965;DHT22;42923;53.220;6.528;2023-02-22T19:54:13;8.00;99.90
52965;DHT22;42923;53.220;6.528;2023-02-22T19:56:46;8.00;99.90
52965;DHT22;42923;53.220;6.528;2023-02-22T19:59:17;8.00;99.90
52965;DHT22;42923;53.220;6.528;2023-02-22T20:01:47;8.00;99.90
52965;DHT22;42923;53.220;6.528;2023-02-22T20:04:15;8.00;99.90
52965;DHT22;42923;53.220;6.528;2023-02-22T20:06:49;8.00;99.90
52965;DHT22;42923;53.220;6.528;2023-02-22T20:09:20;7.90;99.90
52965;DHT22;42923;53.220;6.528;2023-02-22T20:11:48;7.90;99.90
52965;DHT22;42923;53.220;6.528;2023-02-22T20:14:23;7.90;99.90
52965;DHT22;42923;53.220;6.528;2023-02-22T20:16:51;7.90;99.90
52965;DHT22;42923;53.220;6.528;2023-02-22T20:19:17;7.90;99.90
52965;DHT22;42923;53.220;6.528;2023-02-22T20:21:43;7.90;99.90
52965;DHT22;42923;53.220;6.528;2023-02-22T20:24:10;7.90;99.90
52965;DHT22;42923;53.220;6.528;2023-02-22T20:26:40;8.10;99.90
52965;DHT22;42923;53.220;6.528;2023-02-22T20:29:07;7.90;99.90
52965;DHT22;42923;53.220;6.528;2023-02-22T20:31:34;7.90;99.90
52965;DHT22;42923;53.220;6.528;2023-02-22T20:34:00;7.80;99.90
52965;DHT22;42923;53.220;6.528;2023-02-22T20:36:28;7.80;99.90
52965;DHT22;42923;53.220;6.528;2023-02-22T20:38:56;7.90;99.90
52965;DHT22;42923;53.220;6.528;2023-02-22T20:41:26;7.80;99.90
52965;DHT22;42923;53.220;6.528;2023-02-22T20:43:54;7.80;99.90
52965;DHT22;42923;53.220;6.528;2023-02-22T20:46:21;7.80;99.90
52965;DHT22;42923;53.220;6.528;2023-02-22T20:48:48;8.10;99.90
52965;DHT22;42923;53.220;6.528;2023-02-22T20:51:17;7.80;99.90
52965;DHT22;42923;53.220;6.528;2023-02-22T20:53:43;7.80;99.90
52965;DHT22;42923;53.220;6.528;2023-02-22T20:56:17;7.70;99.90
52965;DHT22;42923;53.220;6.528;2023-02-22T20:58:44;7.70;99.90
52965;DHT22;42923;53.220;6.528;2023-02-22T21:01:12;7.70;99.90
52965;DHT22;42923;53.220;6.528;2023-02-22T21:03:38;7.70;99.90
52965;DHT22;42923;53.220;6.528;2023-02-22T21:06:05;7.70;99.90
52965;DHT22;42923;53.220;6.528;2023-02-22T21:08:32;7.60;99.90
52965;DHT22;42923;53.220;6.528;2023-02-22T21:10:58;7.60;99.90
52965;DHT22;42923;53.220;6.528;2023-02-22T21:13:24;7.70;99.90
52965;DHT22;42923;53.220;6.528;2023-02-22T21:15:50;7.60;99.90
52965;DHT22;42923;53.220;6.528;2023-02-22T21:18:18;7.80;99.90
52965;DHT22;42923;53.220;6.528;2023-02-22T21:20:45;7.60;99.90
52965;DHT22;42923;53.220;6.528;2023-02-22T21:23:12;7.60;99.90
52965;DHT22;42923;53.220;6.528;2023-02-22T21:25:38;7.60;99.90
52965;DHT22;42923;53.220;6.528;2023-02-22T21:28:11;7.60;99.90
52965;DHT22;42923;53.220;6.528;2023-02-22T21:30:37;7.80;99.90
52965;DHT22;42923;53.220;6.528;2023-02-22T21:33:03;7.60;99.90
52965;DHT22;42923;53.220;6.528;2023-02-22T21:35:34;7.70;99.90
52965;DHT22;42923;53.220;6.528;2023-02-22T21:38:12;7.50;99.90
52965;DHT22;42923;53.220;6.528;2023-02-22T21:40:44;7.60;99.90
52965;DHT22;42923;53.220;6.528;2023-02-22T21:43:10;7.50;99.90
52965;DHT22;42923;53.220;6.528;2023-02-22T21:45:36;7.60;99.90
52965;DHT22;42923;53.220;6.528;2023-02-22T21:48:02;7.50;99.90
52965;DHT22;42923;53.220;6.528;2023-02-22T21:50:28;7.50;99.90
52965;DHT22;42923;53.220;6.528;2023-02-22T21:52:55;7.50;99.90
52965;DHT22;42923;53.220;6.528;2023-02-22T21:55:22;7.40;99.90
52965;DHT22;42923;53.220;6.528;2023-02-22T21:57:48;7.40;99.90
52965;DHT22;42923;53.220;6.528;2023-02-22T22:00:14;7.40;99.90
52965;DHT22;42923;53.220;6.528;2023-02-22T22:02:44;7.40;99.90
52965;DHT22;42923;53.220;6.528;2023-02-22T22:05:11;7.40;99.90
52965;DHT22;42923;53.220;6.528;2023-02-22T22:07:42;7.40;99.90
52965;DHT22;42923;53.220;6.528;2023-02-22T22:10:12;7.40;99.90
52965;DHT22;42923;53.220;6.528;2023-02-22T22:12:45;7.40;99.90
52965;DHT22;42923;53.220;6.528;2023-02-22T22:15:12;7.40;99.90
52965;DHT22;42923;53.220;6.528;2023-02-22T22:17:43;7.40;99.90
52965;DHT22;42923;53.220;6.528;2023-02-22T22:20:11;7.50;99.90
52965;DHT22;42923;53.220;6.528;2023-02-22T22:22:39;7.40;99.90
52965;DHT22;42923;53.220;6.528;2023-02-22T22:25:08;7.40;99.90
52965;DHT22;42923;53.220;6.528;2023-02-22T22:27:38;7.40;99.90
52965;DHT22;42923;53.220;6.528;2023-02-22T22:30:05;7.50;99.90
52965;DHT22;42923;53.220;6.528;2023-02-22T22:32:32;7.50;99.90